Time;durP1;ratioP1;P1;durP2;ratioP2;P2;SDS_P1;SDS_P2;PMS_P1;PMS_P2;Temp;Humidity;BMP_temperature;BMP_pressure;BME280_temperature;BME280_humidity;BME280_pressure;Samples;Min_cycle;Max_cycle;Signal;HPM_P1;HPM_P2
2023/09/08 00:01:53;;;;;;;35.55;26.50;;;20.70;99.90;;;;;;5078756;28;20025;-75
2023/09/08 00:04:20;;;;;;;32.58;25.23;;;20.70;99.90;;;;;;5076869;28;20020;-75
2023/09/08 00:06:46;;;;;;;30.90;24.95;;;20.70;99.90;;;;;;5085781;28;20027;-75
2023/09/08 00:09:12;;;;;;;31.83;24.88;;;20.70;99.90;;;;;;5078902;28;20035;-74
2023/09/08 00:11:37;;;;;;;31.00;24.35;;;20.60;99.90;;;;;;5075401;28;20025;-74
2023/09/08 00:14:03;;;;;;;34.45;24.92;;;20.60;99.90;;;;;;5074957;28;20024;-74
2023/09/08 00:16:30;;;;;;;31.80;24.52;;;20.60;99.90;;;;;;5082029;28;20496;-75
2023/09/08 00:18:57;;;;;;;30.77;24.80;;;20.60;99.90;;;;;;5073347;28;20029;-75
2023/09/08 00:21:22;;;;;;;33.22;24.70;;;20.60;99.90;;;;;;5080738;28;20082;-75
2023/09/08 00:23:48;;;;;;;31.42;25.08;;;20.50;99.90;;;;;;5079456;28;20021;-75
2023/09/08 00:26:13;;;;;;;31.60;25.25;;;20.50;99.90;;;;;;5074361;28;20060;-75
2023/09/08 00:28:39;;;;;;;32.45;25.20;;;20.50;99.90;;;;;;5080531;28;20036;-75
2023/09/08 00:31:05;;;;;;;33.92;25.00;;;20.40;99.90;;;;;;5088707;28;20032;-75
2023/09/08 00:33:30;;;;;;;31.70;24.58;;;20.40;99.90;;;;;;5082827;28;20025;-74
2023/09/08 00:35:57;;;;;;;34.67;26.02;;;20.40;99.90;;;;;;5072919;28;20483;-75
2023/09/08 00:38:23;;;;;;;34.58;24.90;;;20.40;99.90;;;;;;5074438;28;20103;-75
2023/09/08 00:40:48;;;;;;;29.55;24.02;;;20.30;99.90;;;;;;5084002;28;20423;-75
2023/09/08 00:43:14;;;;;;;32.30;25.77;;;20.30;99.90;;;;;;5076676;28;20035;-75
2023/09/08 00:45:42;;;;;;;31.77;24.98;;;20.30;99.90;;;;;;5087267;28;20025;-75
2023/09/08 00:48:09;;;;;;;32.63;24.85;;;20.30;99.90;;;;;;5074941;28;20032;-75
2023/09/08 00:50:36;;;;;;;30.92;25.15;;;20.20;99.90;;;;;;5078818;28;20029;-75
2023/09/08 00:53:06;;;;;;;32.08;25.13;;;20.20;99.90;;;;;;5086571;28;20047;-75
2023/09/08 00:55:32;;;;;;;35.58;25.75;;;20.20;99.90;;;;;;5077575;28;20025;-75
2023/09/08 00:57:59;;;;;;;35.28;25.63;;;20.20;99.90;;;;;;5082037;28;20032;-74
2023/09/08 01:00:25;;;;;;;35.38;26.20;;;20.20;99.90;;;;;;5072665;28;20116;-75
2023/09/08 01:02:52;;;;;;;33.40;25.08;;;20.10;99.90;;;;;;5072748;28;20052;-74
2023/09/08 01:05:19;;;;;;;36.38;26.80;;;20.10;99.90;;;;;;5081293;28;20524;-75
2023/09/08 01:07:45;;;;;;;34.15;26.05;;;20.10;99.90;;;;;;5072315;28;20398;-75
2023/09/08 01:10:12;;;;;;;35.45;25.92;;;20.10;99.90;;;;;;5074998;28;20063;-75
2023/09/08 01:12:37;;;;;;;34.50;26.35;;;20.10;99.90;;;;;;5078482;28;20498;-75
2023/09/08 01:15:07;;;;;;;34.38;24.15;;;20.00;99.90;;;;;;5084685;28;20024;-75
2023/09/08 01:17:34;;;;;;;34.38;25.92;;;20.10;99.90;;;;;;5074957;28;20103;-75
2023/09/08 01:20:07;;;;;;;35.45;26.10;;;20.00;99.90;;;;;;5078153;28;20063;-75
2023/09/08 01:23:04;;;;;;;35.70;25.10;;;20.00;99.90;;;;;;5084861;28;20302;-74
2023/09/08 01:25:31;;;;;;;33.70;26.52;;;20.00;99.90;;;;;;5066561;28;20048;-75
2023/09/08 01:28:00;;;;;;;33.30;25.25;;;20.00;99.90;;;;;;5083794;28;20078;-75
2023/09/08 01:30:32;;;;;;;34.22;25.45;;;20.00;99.90;;;;;;5087572;28;20025;-75
2023/09/08 01:32:58;;;;;;;33.03;24.58;;;20.00;99.90;;;;;;5072289;28;20371;-75
2023/09/08 01:35:24;;;;;;;32.45;24.45;;;20.00;99.90;;;;;;5071718;28;20047;-75
2023/09/08 01:37:50;;;;;;;33.72;23.92;;;19.90;99.90;;;;;;5071441;28;20107;-75
2023/09/08 01:40:16;;;;;;;30.27;23.25;;;19.90;99.90;;;;;;5083527;28;20107;-75
2023/09/08 01:42:42;;;;;;;34.75;24.73;;;19.90;99.90;;;;;;5076846;28;20016;-75
2023/09/08 01:45:08;;;;;;;31.77;24.70;;;19.90;99.90;;;;;;5076650;28;20055;-75
2023/09/08 01:47:34;;;;;;;31.90;24.10;;;19.90;99.90;;;;;;5086392;28;20471;-75
2023/09/08 01:50:01;;;;;;;33.58;24.55;;;19.90;99.90;;;;;;5084812;28;20421;-75
2023/09/08 01:52:27;;;;;;;33.00;25.67;;;19.80;99.90;;;;;;5075343;28;20444;-75
2023/09/08 01:54:52;;;;;;;35.65;25.13;;;19.80;99.90;;;;;;5078055;28;20452;-75
2023/09/08 01:57:18;;;;;;;34.45;25.42;;;19.80;99.90;;;;;;5071513;28;20020;-75
2023/09/08 01:59:48;;;;;;;36.22;25.83;;;19.80;99.90;;;;;;5071308;28;20576;-75
2023/09/08 02:02:14;;;;;;;33.60;26.25;;;19.80;99.90;;;;;;5071888;28;20036;-75
2023/09/08 02:04:40;;;;;;;33.38;24.33;;;19.80;99.90;;;;;;5074029;28;20063;-75
2023/09/08 02:07:05;;;;;;;34.80;24.83;;;19.80;99.90;;;;;;5074692;28;20021;-75
2023/09/08 02:09:32;;;;;;;32.38;25.30;;;19.70;99.90;;;;;;5071350;28;20087;-74
2023/09/08 02:11:58;;;;;;;32.45;23.95;;;19.70;99.90;;;;;;5070805;28;20365;-75
2023/09/08 02:14:24;;;;;;;32.35;24.58;;;19.70;99.90;;;;;;5071031;28;20036;-75
2023/09/08 02:16:50;;;;;;;34.92;27.00;;;19.70;99.90;;;;;;5078818;28;20424;-75
2023/09/08 02:19:15;;;;;;;34.80;26.02;;;19.60;99.90;;;;;;5076732;28;20493;-75
2023/09/08 02:21:41;;;;;;;37.42;26.20;;;19.60;99.90;;;;;;5076569;28;20044;-75
2023/09/08 02:24:07;;;;;;;35.42;26.40;;;19.60;99.90;;;;;;5075748;28;20099;-75
2023/09/08 02:26:33;;;;;;;33.78;26.70;;;19.60;99.90;;;;;;5081500;28;20154;-75
2023/09/08 02:28:59;;;;;;;35.45;27.05;;;19.60;99.90;;;;;;5090170;28;20106;-75
2023/09/08 02:31:26;;;;;;;37.20;26.45;;;19.60;99.90;;;;;;5079979;28;20036;-75
2023/09/08 02:33:52;;;;;;;34.60;26.52;;;19.50;99.90;;;;;;5075377;28;20035;-75
2023/09/08 02:36:18;;;;;;;38.15;27.77;;;19.50;99.90;;;;;;5075108;28;20020;-75
2023/09/08 02:38:43;;;;;;;37.38;26.95;;;19.50;99.90;;;;;;5078155;28;20482;-75
2023/09/08 02:41:09;;;;;;;34.80;26.25;;;19.50;99.90;;;;;;5086361;28;20107;-75
2023/09/08 02:43:34;;;;;;;35.58;27.63;;;19.50;99.90;;;;;;5070633;28;20020;-75
2023/09/08 02:46:00;;;;;;;38.30;27.20;;;19.40;99.90;;;;;;5074984;28;20028;-75
2023/09/08 02:48:26;;;;;;;36.30;27.67;;;19.50;99.90;;;;;;5070911;28;20067;-75
2023/09/08 02:50:53;;;;;;;38.75;28.70;;;19.50;99.90;;;;;;5085169;28;20015;-75
2023/09/08 02:53:19;;;;;;;36.35;27.27;;;19.50;99.90;;;;;;5084623;28;20025;-75
2023/09/08 02:55:46;;;;;;;37.10;27.85;;;19.40;99.90;;;;;;5084050;28;20124;-75
2023/09/08 02:58:11;;;;;;;35.80;26.85;;;19.40;99.90;;;;;;5081672;28;20289;-75
2023/09/08 03:00:37;;;;;;;35.95;28.17;;;19.40;99.90;;;;;;5074593;28;20051;-75
2023/09/08 03:03:02;;;;;;;37.88;27.85;;;19.40;99.90;;;;;;5077602;28;20056;-75
2023/09/08 03:05:28;;;;;;;36.63;27.67;;;19.40;99.90;;;;;;5083332;28;20027;-75
2023/09/08 03:07:54;;;;;;;37.08;28.27;;;19.40;99.90;;;;;;5084545;28;20028;-75
2023/09/08 03:10:19;;;;;;;37.88;29.00;;;19.40;99.90;;;;;;5077413;28;20032;-75
2023/09/08 03:12:45;;;;;;;40.15;28.58;;;19.30;99.90;;;;;;5076837;28;20103;-75
2023/09/08 03:15:11;;;;;;;38.88;28.60;;;19.30;99.90;;;;;;5071472;28;20024;-75
2023/09/08 03:17:36;;;;;;;38.33;27.90;;;19.30;99.90;;;;;;5083749;28;20017;-75
2023/09/08 03:20:04;;;;;;;37.42;27.15;;;19.30;99.90;;;;;;5085266;28;20027;-75
2023/09/08 03:22:30;;;;;;;36.15;26.83;;;19.30;99.90;;;;;;5087072;28;20519;-75
2023/09/08 03:24:55;;;;;;;38.33;28.00;;;19.20;99.90;;;;;;5072610;28;20086;-71
2023/09/08 03:27:21;;;;;;;38.85;27.52;;;19.30;99.90;;;;;;5072391;28;20020;-75
2023/09/08 03:29:46;;;;;;;36.47;27.58;;;19.20;99.90;;;;;;5070003;28;20395;-75
2023/09/08 03:32:12;;;;;;;36.25;28.48;;;19.20;99.90;;;;;;5073698;28;20024;-74
2023/09/08 03:34:39;;;;;;;36.88;27.85;;;19.20;99.90;;;;;;5073228;28;20436;-74
2023/09/08 03:37:05;;;;;;;39.92;27.40;;;19.20;99.90;;;;;;5074091;28;20467;-75
2023/09/08 03:39:30;;;;;;;37.22;27.40;;;19.10;99.90;;;;;;5087181;28;20046;-75
2023/09/08 03:41:56;;;;;;;37.65;25.73;;;19.10;99.90;;;;;;5075343;28;20016;-75
2023/09/08 03:44:22;;;;;;;36.08;26.80;;;19.10;99.90;;;;;;5078126;28;20017;-75
2023/09/08 03:46:47;;;;;;;39.80;29.35;;;19.10;99.90;;;;;;5083441;28;20375;-74
2023/09/08 03:49:13;;;;;;;40.88;28.92;;;19.10;99.90;;;;;;5073912;28;20028;-75
2023/09/08 03:51:39;;;;;;;34.53;27.27;;;19.10;99.90;;;;;;5073839;28;20162;-74
2023/09/08 03:54:05;;;;;;;42.00;29.38;;;19.00;99.90;;;;;;5088475;28;20024;-76
2023/09/08 03:56:31;;;;;;;39.92;29.20;;;19.00;99.90;;;;;;5084548;28;20021;-75
2023/09/08 03:58:56;;;;;;;37.88;28.55;;;19.00;99.90;;;;;;5085558;28;21117;-75
2023/09/08 04:01:22;;;;;;;39.88;29.67;;;19.00;99.90;;;;;;5080211;28;20474;-75
2023/09/08 04:03:48;;;;;;;38.97;28.65;;;19.00;99.90;;;;;;5078682;28;20020;-75
2023/09/08 04:06:13;;;;;;;39.10;28.80;;;19.00;99.90;;;;;;5077311;28;20028;-75
2023/09/08 04:08:39;;;;;;;39.72;30.23;;;18.90;99.90;;;;;;5073376;28;20431;-75
2023/09/08 04:11:05;;;;;;;40.22;29.73;;;18.90;99.90;;;;;;5073299;28;20025;-75
2023/09/08 04:13:30;;;;;;;39.35;29.35;;;18.90;99.90;;;;;;5080096;28;20059;-75
2023/09/08 04:15:56;;;;;;;38.97;29.13;;;18.90;99.90;;;;;;5081639;28;20013;-74
2023/09/08 04:18:21;;;;;;;40.30;28.58;;;18.90;99.90;;;;;;5076461;28;20016;-75
2023/09/08 04:20:47;;;;;;;37.60;27.58;;;18.90;99.90;;;;;;5092114;28;20463;-75
2023/09/08 04:23:12;;;;;;;37.10;27.48;;;18.90;99.90;;;;;;5076438;28;20025;-75
2023/09/08 04:25:38;;;;;;;40.30;29.27;;;18.90;99.90;;;;;;5073566;28;20048;-75
2023/09/08 04:28:04;;;;;;;43.47;29.73;;;18.90;99.90;;;;;;5074115;28;20020;-75
2023/09/08 04:30:30;;;;;;;39.10;28.08;;;18.80;99.90;;;;;;5073959;28;20079;-75
2023/09/08 04:32:55;;;;;;;40.47;29.20;;;18.80;99.90;;;;;;5075378;28;20467;-75
2023/09/08 04:35:21;;;;;;;38.05;28.55;;;18.80;99.90;;;;;;5073078;28;20055;-75
2023/09/08 04:37:47;;;;;;;36.78;28.27;;;18.80;99.90;;;;;;5082684;28;20020;-76
2023/09/08 04:40:12;;;;;;;38.92;28.33;;;18.80;99.90;;;;;;5073059;28;20498;-75
2023/09/08 04:42:38;;;;;;;37.10;27.55;;;18.80;99.90;;;;;;5083026;28;20016;-75
2023/09/08 04:45:04;;;;;;;38.75;28.48;;;18.70;99.90;;;;;;5075664;28;20108;-75
2023/09/08 04:47:30;;;;;;;40.67;29.30;;;18.80;99.90;;;;;;5076290;28;20371;-75
2023/09/08 04:49:55;;;;;;;39.92;28.98;;;18.70;99.90;;;;;;5087272;28;20028;-75
2023/09/08 04:52:21;;;;;;;36.63;27.80;;;18.70;99.90;;;;;;5084724;28;20443;-75
2023/09/08 04:54:47;;;;;;;40.40;27.55;;;18.70;99.90;;;;;;5085170;28;20020;-75
2023/09/08 04:57:12;;;;;;;38.60;27.80;;;18.70;99.90;;;;;;5086533;28;20028;-75
2023/09/08 04:59:39;;;;;;;42.05;28.80;;;18.70;99.90;;;;;;5085697;28;20047;-75
2023/09/08 05:02:05;;;;;;;39.17;27.85;;;18.60;99.90;;;;;;5074531;28;20501;-75
2023/09/08 05:04:30;;;;;;;39.28;28.88;;;18.60;99.90;;;;;;5079633;28;20040;-76
2023/09/08 05:06:56;;;;;;;39.78;28.80;;;18.60;99.90;;;;;;5077502;28;20100;-76
2023/09/08 05:09:21;;;;;;;37.05;27.13;;;18.60;99.90;;;;;;5087528;28;20023;-76
2023/09/08 05:11:47;;;;;;;38.28;27.08;;;18.60;99.90;;;;;;5086377;28;20023;-76
2023/09/08 05:14:12;;;;;;;38.85;26.38;;;18.60;99.90;;;;;;5084877;28;20468;-77
2023/09/08 05:16:55;;;;;;;38.63;28.63;;;18.60;99.90;;;;;;5083821;28;20017;-77
2023/09/08 05:19:21;;;;;;;40.92;27.67;;;18.60;99.90;;;;;;5089543;28;20055;-76
2023/09/08 05:21:46;;;;;;;36.58;27.73;;;18.60;99.90;;;;;;5073101;28;20019;-76
2023/09/08 05:24:12;;;;;;;37.22;25.85;;;18.50;99.90;;;;;;5072412;28;20416;-76
2023/09/08 05:26:38;;;;;;;38.22;28.00;;;18.50;99.90;;;;;;5075851;28;20104;-75
2023/09/08 05:29:04;;;;;;;39.22;27.80;;;18.50;99.90;;;;;;5075935;28;20475;-75
2023/09/08 05:31:30;;;;;;;36.13;28.08;;;18.50;99.90;;;;;;5081957;28;20081;-75
2023/09/08 05:33:55;;;;;;;33.60;26.23;;;18.50;99.90;;;;;;5091071;28;20016;-77
2023/09/08 05:36:21;;;;;;;36.38;26.67;;;18.50;99.90;;;;;;5087505;28;20024;-78
2023/09/08 05:38:47;;;;;;;37.20;26.48;;;18.50;99.90;;;;;;5091914;28;20024;-78
2023/09/08 05:41:12;;;;;;;37.80;27.65;;;18.50;99.90;;;;;;5094182;28;20023;-79
2023/09/08 05:43:38;;;;;;;36.03;27.85;;;18.50;99.90;;;;;;5082619;28;20301;-79
2023/09/08 05:46:04;;;;;;;39.05;28.50;;;18.60;99.90;;;;;;5089098;28;20047;-78
2023/09/08 05:48:29;;;;;;;36.97;26.90;;;18.60;99.90;;;;;;5091947;28;20027;-78
2023/09/08 05:50:55;;;;;;;43.13;28.95;;;18.60;99.90;;;;;;5086018;28;20035;-80
2023/09/08 05:53:21;;;;;;;41.35;28.08;;;18.60;99.90;;;;;;5095974;28;20032;-80
2023/09/08 05:55:47;;;;;;;39.30;29.33;;;18.60;99.90;;;;;;5097971;28;20024;-80
2023/09/08 05:58:12;;;;;;;39.30;27.75;;;18.60;99.90;;;;;;5090862;28;20936;-80
2023/09/08 06:00:38;;;;;;;39.00;27.95;;;18.70;99.90;;;;;;5085275;28;20093;-80
2023/09/08 06:03:05;;;;;;;39.95;27.45;;;18.70;99.90;;;;;;5087632;28;20021;-80
2023/09/08 06:05:30;;;;;;;39.65;28.08;;;18.70;99.90;;;;;;5094003;28;20052;-79
2023/09/08 06:07:56;;;;;;;39.78;28.35;;;18.70;99.90;;;;;;5097172;28;20027;-79
2023/09/08 06:10:22;;;;;;;39.58;28.80;;;18.80;99.90;;;;;;5094744;28;20058;-79
2023/09/08 06:12:50;;;;;;;43.72;30.88;;;18.80;99.90;;;;;;5097380;28;20028;-79
2023/09/08 06:15:16;;;;;;;43.28;28.90;;;18.90;99.90;;;;;;5085923;28;20020;-76
2023/09/08 06:17:42;;;;;;;41.92;28.52;;;18.90;99.90;;;;;;5074709;28;20031;-76
2023/09/08 06:20:08;;;;;;;45.00;29.45;;;18.90;99.90;;;;;;5069254;28;20025;-77
2023/09/08 06:22:34;;;;;;;40.67;28.95;;;19.00;99.90;;;;;;5081158;28;20020;-76
2023/09/08 06:24:59;;;;;;;39.78;27.83;;;19.00;99.90;;;;;;5072148;28;20009;-75
2023/09/08 06:27:25;;;;;;;42.83;28.45;;;19.00;99.90;;;;;;5082056;28;20091;-76
2023/09/08 06:29:51;;;;;;;38.05;25.95;;;19.10;99.90;;;;;;5072502;28;20066;-76
2023/09/08 06:32:17;;;;;;;41.92;27.48;;;19.10;99.90;;;;;;5077901;28;20055;-77
2023/09/08 06:34:43;;;;;;;37.80;29.05;;;19.10;99.90;;;;;;5070582;28;20021;-76
2023/09/08 06:37:08;;;;;;;39.30;28.50;;;19.20;99.90;;;;;;5081954;28;20369;-77
2023/09/08 06:39:34;;;;;;;40.50;27.92;;;19.20;99.90;;;;;;5082629;28;20220;-76
2023/09/08 06:41:59;;;;;;;38.47;28.23;;;19.30;99.90;;;;;;5076325;28;20047;-76
2023/09/08 06:44:25;;;;;;;41.00;28.58;;;19.30;99.90;;;;;;5081609;28;20028;-76
2023/09/08 06:46:51;;;;;;;38.50;27.67;;;19.30;99.90;;;;;;5075004;28;20027;-76
2023/09/08 06:49:17;;;;;;;38.53;26.98;;;19.40;99.90;;;;;;5087784;28;20387;-75
2023/09/08 06:51:43;;;;;;;36.70;28.23;;;19.50;99.90;;;;;;5084948;28;20028;-76
2023/09/08 06:54:08;;;;;;;47.25;29.42;;;19.50;99.90;;;;;;5073605;28;20020;-76
2023/09/08 06:56:35;;;;;;;43.80;30.17;;;19.50;99.90;;;;;;5079749;28;20034;-75
2023/09/08 06:59:01;;;;;;;40.55;28.92;;;19.60;99.90;;;;;;5084582;28;20105;-76
2023/09/08 07:01:26;;;;;;;38.95;27.92;;;19.60;99.90;;;;;;5073444;28;20058;-76
2023/09/08 07:03:52;;;;;;;43.53;29.48;;;19.70;99.90;;;;;;5075642;28;20085;-76
2023/09/08 07:06:18;;;;;;;40.83;29.73;;;19.70;99.90;;;;;;5072983;28;20430;-76
2023/09/08 07:08:43;;;;;;;42.30;30.05;;;19.80;99.90;;;;;;5071731;28;20060;-77
2023/09/08 07:11:09;;;;;;;41.90;29.33;;;19.90;99.90;;;;;;5069884;28;20043;-76
2023/09/08 07:13:35;;;;;;;42.53;30.60;;;20.00;99.90;;;;;;5079480;28;20074;-76
2023/09/08 07:16:00;;;;;;;44.50;30.77;;;20.00;99.90;;;;;;5075964;28;20092;-76
2023/09/08 07:18:26;;;;;;;41.15;29.88;;;20.10;99.90;;;;;;5070263;28;20092;-76
2023/09/08 07:20:52;;;;;;;39.10;30.65;;;20.10;99.90;;;;;;5070449;28;20029;-76
2023/09/08 07:23:20;;;;;;;42.35;30.17;;;20.20;99.90;;;;;;5070046;28;20017;-76
2023/09/08 07:25:47;;;;;;;42.00;30.50;;;20.30;99.90;;;;;;5070137;28;20021;-76
2023/09/08 07:28:14;;;;;;;43.40;29.63;;;20.40;99.90;;;;;;5083397;28;20052;-76
2023/09/08 07:30:39;;;;;;;40.47;29.08;;;20.50;99.90;;;;;;5072702;28;20031;-77
2023/09/08 07:33:05;;;;;;;37.80;29.30;;;20.60;99.90;;;;;;5073305;28;20020;-76
2023/09/08 07:35:31;;;;;;;44.53;28.55;;;20.70;99.90;;;;;;5073825;28;20054;-77
2023/09/08 07:37:57;;;;;;;42.60;29.40;;;20.80;99.90;;;;;;5082009;28;20089;-77
2023/09/08 07:40:23;;;;;;;45.17;29.38;;;20.90;99.90;;;;;;5070451;28;20016;-76
2023/09/08 07:42:48;;;;;;;39.00;28.83;;;21.00;99.90;;;;;;5075054;28;20024;-76
2023/09/08 07:45:14;;;;;;;42.58;28.10;;;21.10;99.90;;;;;;5080634;28;20490;-76
2023/09/08 07:47:40;;;;;;;47.53;27.42;;;21.20;99.90;;;;;;5075010;28;20020;-76
2023/09/08 07:50:20;;;;;;;39.58;27.27;;;21.40;99.90;;;;;;5074745;28;20040;-76
2023/09/08 07:52:50;;;;;;;35.13;24.98;;;21.50;99.90;;;;;;5070273;28;20032;-76
2023/09/08 07:55:16;;;;;;;37.83;26.67;;;21.60;99.90;;;;;;5069950;28;20031;-76
2023/09/08 07:57:43;;;;;;;39.15;26.70;;;21.80;99.90;;;;;;5074004;28;20016;-77
2023/09/08 08:00:12;;;;;;;41.40;25.25;;;22.00;99.90;;;;;;5078806;28;20052;-76
2023/09/08 08:02:42;;;;;;;42.60;24.95;;;22.10;99.90;;;;;;5069607;28;20032;-76
2023/09/08 08:05:07;;;;;;;37.00;26.42;;;22.30;99.90;;;;;;5069940;28;20047;-76
2023/09/08 08:07:33;;;;;;;38.42;25.05;;;22.50;99.90;;;;;;5079271;28;20021;-76
2023/09/08 08:09:59;;;;;;;41.28;24.50;;;22.60;99.90;;;;;;5069619;28;20046;-76
2023/09/08 08:12:24;;;;;;;36.38;22.45;;;22.90;99.90;;;;;;5070205;28;20043;-75
2023/09/08 08:14:50;;;;;;;34.50;25.20;;;23.10;99.90;;;;;;5069723;28;20023;-74
2023/09/08 08:17:17;;;;;;;36.20;23.63;;;23.30;99.90;;;;;;5069248;28;20048;-76
2023/09/08 08:19:43;;;;;;;31.10;23.23;;;23.50;99.90;;;;;;5069942;28;20115;-75
2023/09/08 08:22:09;;;;;;;31.63;21.38;;;23.70;99.90;;;;;;5077013;28;20444;-75
2023/09/08 08:24:34;;;;;;;34.88;22.35;;;23.90;99.90;;;;;;5086933;28;20103;-75
2023/09/08 08:27:01;;;;;;;39.55;22.13;;;24.10;99.90;;;;;;5072782;28;20020;-76
2023/09/08 08:29:27;;;;;;;30.88;21.50;;;24.30;99.90;;;;;;5072982;28;20028;-76
2023/09/08 08:31:52;;;;;;;33.45;21.65;;;24.50;99.90;;;;;;5089985;28;20091;-76
2023/09/08 08:34:18;;;;;;;28.90;21.60;;;24.70;99.90;;;;;;5072875;28;20017;-76
2023/09/08 08:36:44;;;;;;;36.22;21.45;;;24.80;99.90;;;;;;5081673;28;20103;-76
2023/09/08 08:39:09;;;;;;;32.22;21.90;;;25.00;99.90;;;;;;5076038;28;20025;-76
2023/09/08 08:41:39;;;;;;;34.67;21.65;;;25.20;99.90;;;;;;5076608;28;20051;-76
2023/09/08 08:44:06;;;;;;;33.67;22.23;;;25.40;99.90;;;;;;5072682;28;20017;-76
2023/09/08 08:46:33;;;;;;;32.60;22.50;;;25.60;99.90;;;;;;5079649;28;20027;-76
2023/09/08 08:49:02;;;;;;;27.83;21.20;;;25.80;99.90;;;;;;5072280;28;20387;-76
2023/09/08 08:51:29;;;;;;;32.17;21.17;;;25.90;99.90;;;;;;5072713;28;20383;-76
2023/09/08 08:53:55;;;;;;;30.52;21.85;;;26.00;99.90;;;;;;5071148;28;20063;-75
2023/09/08 08:56:22;;;;;;;30.90;22.25;;;26.20;99.90;;;;;;5072642;28;20067;-75
2023/09/08 08:58:49;;;;;;;29.98;21.85;;;26.30;99.90;;;;;;5087978;28;20064;-75
2023/09/08 09:01:19;;;;;;;29.25;20.88;;;26.50;99.90;;;;;;5072266;28;20051;-76
2023/09/08 09:03:49;;;;;;;30.20;21.45;;;26.70;99.90;;;;;;5072060;28;20024;-75
2023/09/08 09:06:15;;;;;;;27.08;21.38;;;26.80;99.90;;;;;;5076353;28;20037;-76
2023/09/08 09:08:44;;;;;;;29.40;19.15;;;27.00;99.90;;;;;;5076718;28;20028;-76
2023/09/08 09:11:10;;;;;;;29.63;18.02;;;27.10;99.90;;;;;;5086187;28;20158;-76
2023/09/08 09:13:35;;;;;;;25.88;16.92;;;27.20;99.90;;;;;;5087559;28;20531;-76
2023/09/08 09:16:03;;;;;;;23.70;17.33;;;27.30;99.90;;;;;;5085411;28;20099;-75
2023/09/08 09:18:30;;;;;;;23.55;16.30;;;27.50;99.90;;;;;;5086179;28;20345;-77
2023/09/08 09:20:59;;;;;;;22.10;16.70;;;27.70;99.90;;;;;;5078846;28;20031;-76
2023/09/08 09:23:36;;;;;;;24.88;16.33;;;27.80;99.90;;;;;;5079722;28;20016;-75
2023/09/08 09:26:06;;;;;;;23.00;15.75;;;27.90;99.90;;;;;;5072263;28;20498;-76
2023/09/08 09:28:32;;;;;;;22.75;16.23;;;28.00;99.90;;;;;;5074803;28;20032;-75
2023/09/08 09:30:59;;;;;;;23.77;13.77;;;28.10;99.90;;;;;;5079420;28;20037;-76
2023/09/08 09:33:24;;;;;;;21.33;15.02;;;28.20;99.90;;;;;;5080696;28;20019;-76
2023/09/08 09:35:51;;;;;;;24.90;15.73;;;28.40;99.90;;;;;;5090059;28;20470;-76
2023/09/08 09:38:18;;;;;;;22.60;15.45;;;28.50;99.90;;;;;;5087607;28;20376;-75
2023/09/08 09:40:45;;;;;;;23.92;14.50;;;28.60;99.90;;;;;;5072385;28;20422;-76
2023/09/08 09:43:11;;;;;;;38.05;14.68;;;28.70;99.90;;;;;;5078124;28;20021;-77
2023/09/08 09:45:38;;;;;;;27.70;14.52;;;28.90;99.90;;;;;;5085491;28;20031;-78
2023/09/08 09:48:04;;;;;;;25.70;15.18;;;29.00;99.90;;;;;;5088728;28;20028;-79
2023/09/08 09:50:35;;;;;;;23.02;15.52;;;29.10;99.90;;;;;;5084920;28;20453;-79
2023/09/08 09:53:08;;;;;;;20.15;14.48;;;29.10;99.90;;;;;;5085465;28;20497;-73
2023/09/08 09:55:35;;;;;;;19.95;14.57;;;29.20;99.90;;;;;;5073355;28;20035;-74
2023/09/08 09:58:03;;;;;;;18.13;13.23;;;29.30;99.90;;;;;;5078610;28;20429;-74
2023/09/08 10:00:30;;;;;;;20.35;11.95;;;29.40;99.90;;;;;;5077695;28;20044;-73
2023/09/08 10:02:56;;;;;;;21.35;11.93;;;29.60;99.90;;;;;;5072247;28;20042;-76
2023/09/08 10:05:26;;;;;;;21.88;13.18;;;29.70;99.90;;;;;;5089692;28;20044;-80
2023/09/08 10:07:52;;;;;;;17.73;11.38;;;29.90;99.90;;;;;;5093468;28;20031;-79
2023/09/08 10:10:20;;;;;;;19.38;12.63;;;30.10;99.90;;;;;;5094746;28;20493;-80
2023/09/08 10:12:52;;;;;;;20.92;12.23;;;30.30;99.90;;;;;;5094423;28;20391;-80
2023/09/08 10:15:21;;;;;;;21.23;12.63;;;30.50;99.90;;;;;;5088456;28;20023;-79
2023/09/08 10:17:54;;;;;;;19.40;12.65;;;30.50;99.90;;;;;;5094332;28;20051;-79
2023/09/08 10:20:22;;;;;;;20.17;11.95;;;30.50;99.90;;;;;;5100226;28;20020;-80
2023/09/08 10:22:53;;;;;;;18.25;11.25;;;30.40;99.90;;;;;;5085079;28;20012;-79
2023/09/08 10:25:24;;;;;;;13.55;10.55;;;30.40;99.90;;;;;;5076255;28;20036;-78
2023/09/08 10:27:50;;;;;;;14.25;9.55;;;30.50;99.90;;;;;;5088816;28;20035;-79
2023/09/08 10:30:17;;;;;;;15.98;11.43;;;30.60;99.90;;;;;;5081577;28;20039;-78
2023/09/08 10:32:43;;;;;;;18.48;12.25;;;30.70;99.90;;;;;;5090422;28;20024;-78
2023/09/08 10:35:09;;;;;;;19.65;12.98;;;30.70;99.90;;;;;;5089955;28;20026;-78
2023/09/08 10:37:35;;;;;;;16.92;12.48;;;30.70;99.90;;;;;;5070637;28;20672;-78
2023/09/08 10:40:21;;;;;;;14.32;9.02;;;30.70;99.90;;;;;;5079079;28;20024;-78
2023/09/08 10:42:46;;;;;;;;;;;30.80;99.90;;;;;;5086239;28;20066;-78
2023/09/08 10:45:17;;;;;;;14.48;9.85;;;30.90;99.70;;;;;;5089797;28;19908;-77
2023/09/08 10:47:56;;;;;;;17.60;11.18;;;31.00;99.90;;;;;;5081117;28;20023;-77
2023/09/08 10:50:48;;;;;;;17.05;10.93;;;31.20;99.40;;;;;;5080224;28;20021;-77
2023/09/08 10:53:18;;;;;;;14.63;9.80;;;31.40;98.30;;;;;;5076231;28;20051;-77
2023/09/08 10:55:50;;;;;;;16.05;10.00;;;31.40;98.00;;;;;;5075996;28;20501;-78
2023/09/08 10:58:49;;;;;;;17.30;10.85;;;31.50;97.60;;;;;;5089161;28;20024;-77
2023/09/08 11:01:26;;;;;;;17.65;10.52;;;31.60;97.00;;;;;;5063635;28;20118;-78
2023/09/08 11:03:53;;;;;;;22.85;11.98;;;31.60;96.90;;;;;;5080897;28;20525;-77
2023/09/08 11:06:23;;;;;;;19.65;10.80;;;31.60;96.80;;;;;;5084588;28;20024;-78
2023/09/08 11:08:52;;;;;;;16.27;10.68;;;31.70;97.00;;;;;;5084369;28;20040;-77
2023/09/08 11:11:18;;;;;;;20.83;11.95;;;31.90;96.80;;;;;;5072332;28;20029;-77
2023/09/08 11:13:46;;;;;;;16.50;11.23;;;32.00;96.20;;;;;;5086551;28;20479;-77
2023/09/08 11:16:14;;;;;;;16.88;12.57;;;32.00;95.70;;;;;;5087777;28;20478;-77
2023/09/08 11:18:42;;;;;;;21.33;13.10;;;32.00;95.10;;;;;;5078555;28;20679;-78
2023/09/08 11:21:09;;;;;;;22.15;13.23;;;32.00;94.60;;;;;;5086045;28;20173;-78
2023/09/08 11:23:34;;;;;;;21.00;11.48;;;31.90;94.20;;;;;;5078343;28;20095;-77
2023/09/08 11:26:00;;;;;;;19.38;13.20;;;31.80;94.20;;;;;;5077256;28;20147;-77
2023/09/08 11:28:28;;;;;;;21.98;11.77;;;31.90;94.00;;;;;;5080283;28;20506;-77
2023/09/08 11:30:55;;;;;;;18.77;14.10;;;31.90;94.10;;;;;;5077273;28;20090;-77
2023/09/08 11:33:25;;;;;;;20.75;12.50;;;31.90;94.00;;;;;;5076655;28;20031;-73
2023/09/08 11:35:55;;;;;;;18.80;13.55;;;31.90;93.90;;;;;;5086175;28;20024;-76
2023/09/08 11:38:28;;;;;;;15.18;10.90;;;32.00;93.70;;;;;;5077628;28;20597;-76
2023/09/08 11:40:55;;;;;;;14.15;10.45;;;32.00;93.40;;;;;;5070548;28;20028;-77
2023/09/08 11:43:21;;;;;;;17.98;12.00;;;32.20;93.30;;;;;;5071039;28;20032;-77
2023/09/08 11:45:47;;;;;;;16.42;11.48;;;32.20;92.80;;;;;;5087855;28;20046;-77
2023/09/08 11:48:15;;;;;;;23.10;13.93;;;32.30;92.70;;;;;;5080749;28;20091;-78
2023/09/08 11:50:41;;;;;;;17.38;13.30;;;32.30;92.30;;;;;;5077383;28;20054;-76
2023/09/08 11:53:07;;;;;;;17.95;13.00;;;32.30;92.10;;;;;;5073235;28;20489;-75
2023/09/08 11:55:33;;;;;;;19.85;13.70;;;32.20;92.00;;;;;;5078352;28;20039;-76
2023/09/08 11:58:02;;;;;;;14.75;10.35;;;32.30;92.00;;;;;;5076060;28;20024;-77
2023/09/08 12:00:29;;;;;;;14.40;9.10;;;32.30;91.70;;;;;;5083936;28;20044;-76
2023/09/08 12:02:55;;;;;;;12.85;9.40;;;32.40;91.30;;;;;;5079816;28;20063;-77
2023/09/08 12:05:26;;;;;;;12.75;9.88;;;32.50;90.80;;;;;;5079615;28;20021;-77
2023/09/08 12:07:56;;;;;;;13.18;9.70;;;32.60;90.50;;;;;;5084141;28;20559;-77
2023/09/08 12:10:22;;;;;;;12.02;8.52;;;32.60;90.00;;;;;;5091536;28;20030;-77
2023/09/08 12:12:49;;;;;;;10.48;7.72;;;32.60;90.00;;;;;;5080247;28;20028;-77
2023/09/08 12:15:34;;;;;;;13.43;9.00;;;32.60;90.00;;;;;;5081855;28;20030;-77
2023/09/08 12:18:05;;;;;;;11.45;8.15;;;32.70;89.50;;;;;;5087623;28;20035;-77
2023/09/08 12:20:31;;;;;;;11.40;7.60;;;32.70;89.60;;;;;;5085637;28;20107;-78
2023/09/08 12:23:02;;;;;;;9.95;7.63;;;32.70;88.00;;;;;;5080273;28;20074;-77
2023/09/08 12:25:28;;;;;;;12.13;7.30;;;32.80;87.00;;;;;;5092135;28;20032;-78
2023/09/08 12:27:54;;;;;;;10.18;6.90;;;32.80;86.80;;;;;;5090750;28;20020;-78